createdAt,value
2018-02-19T00:00:35.057Z,37.67
2018-02-19T00:03:04.202Z,49.30
2018-02-19T00:05:33.412Z,37.33
2018-02-19T00:08:02.559Z,37.27
2018-02-19T00:10:31.709Z,36.77
2018-02-19T00:13:00.894Z,35.53
2018-02-19T00:15:30.030Z,36.43
2018-02-19T00:17:59.186Z,35.30
2018-02-19T00:20:28.386Z,34.07
2018-02-19T00:22:57.534Z,36.40
2018-02-19T00:25:26.674Z,37.00
2018-02-19T00:27:55.862Z,35.83
2018-02-19T00:30:25.001Z,36.40
2018-02-19T00:32:54.147Z,35.23
2018-02-19T00:35:23.322Z,35.07
2018-02-19T00:37:52.467Z,36.03
2018-02-19T00:40:21.606Z,36.00
2018-02-19T00:42:51.033Z,36.50
2018-02-19T00:45:20.190Z,34.93
2018-02-19T00:47:49.332Z,35.90
2018-02-19T00:50:18.525Z,36.30
2018-02-19T00:52:47.680Z,35.00
2018-02-19T00:55:16.826Z,39.47
2018-02-19T00:57:45.997Z,37.73
2018-02-19T01:00:15.298Z,38.07
2018-02-19T01:02:44.442Z,39.53
2018-02-19T01:05:13.577Z,38.50
2018-02-19T01:07:42.756Z,38.13
2018-02-19T01:10:11.888Z,37.83
2018-02-19T01:12:41.027Z,38.40
2018-02-19T01:15:10.217Z,37.30
2018-02-19T01:17:39.356Z,37.40
2018-02-19T01:20:08.494Z,40.97
2018-02-19T01:22:37.660Z,38.00
2018-02-19T01:25:06.835Z,46.40
2018-02-19T01:27:35.988Z,42.50
2018-02-19T01:30:05.136Z,42.20
2018-02-19T01:32:34.294Z,37.77
2018-02-19T01:35:03.442Z,38.33
2018-02-19T01:37:32.598Z,40.63
2018-02-19T01:40:01.766Z,38.40
2018-02-19T01:42:31.107Z,42.30
2018-02-19T01:45:00.660Z,39.90
2018-02-19T01:47:29.852Z,37.73
2018-02-19T01:50:04.973Z,36.57
2018-02-19T01:52:34.147Z,38.37
2018-02-19T01:55:03.293Z,39.70
2018-02-19T01:57:32.469Z,37.60
2018-02-19T02:00:01.602Z,37.60
2018-02-19T02:02:30.753Z,37.50
2018-02-19T02:04:59.940Z,38.07
2018-02-19T02:07:29.109Z,39.50
2018-02-19T02:09:58.249Z,39.43
2018-02-19T02:12:27.425Z,40.67
2018-02-19T02:14:56.593Z,34.90
2018-02-19T02:17:25.733Z,35.30
2018-02-19T02:19:54.911Z,36.73
2018-02-19T02:22:24.054Z,42.80
2018-02-19T02:24:53.196Z,34.53
2018-02-19T02:27:22.387Z,37.00
2018-02-19T02:29:51.526Z,39.00
2018-02-19T02:32:20.708Z,34.60
2018-02-19T02:34:49.864Z,40.90
2018-02-19T02:37:19.011Z,33.53
2018-02-19T02:39:48.173Z,36.03
2018-02-19T02:42:17.328Z,32.77
2018-02-19T02:44:46.477Z,54.17
2018-02-19T02:47:15.667Z,33.77
2018-02-19T02:49:44.819Z,35.00
2018-02-19T02:52:14.008Z,44.33
2018-02-19T02:54:43.154Z,37.37
2018-02-19T02:57:12.295Z,38.77
2018-02-19T02:59:41.457Z,37.10
2018-02-19T03:02:10.613Z,50.43
2018-02-19T03:04:39.758Z,35.00
2018-02-19T03:07:08.937Z,36.83
2018-02-19T03:09:38.073Z,35.80
2018-02-19T03:12:07.245Z,38.30
2018-02-19T03:14:36.390Z,37.30
2018-02-19T03:17:05.540Z,38.73
2018-02-19T03:19:34.720Z,37.57
2018-02-19T03:22:04.426Z,37.70
2018-02-19T03:24:33.690Z,38.17
2018-02-19T03:27:02.830Z,37.07
2018-02-19T03:29:32.017Z,39.10
2018-02-19T03:32:01.210Z,33.63
2018-02-19T03:34:30.338Z,41.60
2018-02-19T03:36:59.489Z,33.70
2018-02-19T03:39:28.664Z,47.20
2018-02-19T03:41:57.808Z,41.17
2018-02-19T03:44:26.960Z,36.70
2018-02-19T03:46:56.147Z,37.20
2018-02-19T03:49:25.356Z,37.20
2018-02-19T03:51:54.502Z,37.07
2018-02-19T03:54:23.640Z,38.40
2018-02-19T03:56:52.862Z,37.00
2018-02-19T03:59:22.009Z,33.37
2018-02-19T04:01:51.149Z,38.50
2018-02-19T04:04:20.329Z,39.37
2018-02-19T04:06:49.470Z,38.20
2018-02-19T04:09:18.629Z,38.27
2018-02-19T04:11:47.786Z,38.23
2018-02-19T04:14:16.918Z,37.93
2018-02-19T04:16:46.064Z,36.20
2018-02-19T04:19:15.246Z,40.73
2018-02-19T04:21:44.378Z,39.50
2018-02-19T04:24:13.526Z,37.93
2018-02-19T04:26:42.703Z,37.77
2018-02-19T04:29:11.830Z,36.63
2018-02-19T04:31:41.004Z,38.10
2018-02-19T04:34:10.173Z,37.23
2018-02-19T04:36:39.362Z,36.83
2018-02-19T04:39:08.507Z,37.60
2018-02-19T04:41:37.647Z,37.33
2018-02-19T04:44:06.823Z,36.10
2018-02-19T04:49:34.312Z,36.83
2018-02-19T04:52:03.497Z,39.07
2018-02-19T04:54:32.646Z,35.67
2018-02-19T04:57:01.824Z,36.60
2018-02-19T04:59:30.973Z,37.67
2018-02-19T05:02:00.113Z,33.60
2018-02-19T05:04:29.289Z,34.57
2018-02-19T05:06:58.450Z,35.17
2018-02-19T05:09:27.598Z,34.80
2018-02-19T05:11:56.785Z,38.00
2018-02-19T05:14:25.939Z,36.67
2018-02-19T05:16:55.079Z,35.87
2018-02-19T05:19:24.245Z,32.50
2018-02-19T05:21:53.403Z,32.30
2018-02-19T05:24:22.677Z,35.93
2018-02-19T05:26:51.844Z,35.73
2018-02-19T05:29:20.987Z,33.40
2018-02-19T05:31:50.133Z,34.97
2018-02-19T05:34:19.297Z,31.53
2018-02-19T05:36:48.462Z,38.33
2018-02-19T05:39:17.609Z,36.57
2018-02-19T05:41:46.814Z,34.10
2018-02-19T05:44:15.961Z,50.70
2018-02-19T05:46:45.101Z,39.07
2018-02-19T05:49:14.265Z,39.60
2018-02-19T05:51:43.404Z,38.03
2018-02-19T05:54:12.551Z,38.53
2018-02-19T05:56:41.725Z,37.47
2018-02-19T05:59:10.882Z,38.70
2018-02-19T06:01:40.032Z,38.10
2018-02-19T06:04:09.223Z,40.00
2018-02-19T06:06:38.371Z,39.27
2018-02-19T06:09:07.518Z,36.53
2018-02-19T06:11:36.678Z,37.90
2018-02-19T06:14:05.812Z,37.40
2018-02-19T06:16:34.963Z,38.20
2018-02-19T06:19:04.153Z,35.77
2018-02-19T06:21:33.314Z,34.47
2018-02-19T06:24:02.478Z,35.30
2018-02-19T06:26:31.622Z,35.20
2018-02-19T06:29:00.805Z,35.57
2018-02-19T06:31:29.949Z,36.50
2018-02-19T06:33:59.094Z,35.30
2018-02-19T06:36:28.266Z,36.03
2018-02-19T06:38:57.430Z,38.37
2018-02-19T06:41:26.568Z,33.90
2018-02-19T06:43:55.764Z,37.17
2018-02-19T06:46:24.916Z,36.03
2018-02-19T06:48:54.063Z,34.30
2018-02-19T06:51:23.236Z,34.60
2018-02-19T06:53:52.377Z,32.93
2018-02-19T06:56:21.591Z,32.47
2018-02-19T06:58:50.729Z,31.30
2018-02-19T07:01:19.879Z,34.10
2018-02-19T07:03:49.067Z,32.83
2018-02-19T07:06:18.205Z,33.83
2018-02-19T07:08:47.346Z,34.90
2018-02-19T07:11:16.521Z,35.50
2018-02-19T07:13:45.663Z,34.43
2018-02-19T07:16:14.863Z,34.40
2018-02-19T07:18:43.999Z,35.53
2018-02-19T07:21:13.150Z,35.10
2018-02-19T07:23:42.326Z,37.13
2018-02-19T07:26:11.495Z,33.77
2018-02-19T07:28:40.782Z,33.57
2018-02-19T07:31:09.955Z,35.90
2018-02-19T07:33:39.095Z,34.97
2018-02-19T07:36:08.233Z,34.57
2018-02-19T07:38:37.410Z,35.90
2018-02-19T07:41:06.565Z,34.53
2018-02-19T07:43:35.711Z,33.33
2018-02-19T07:46:04.894Z,34.50
2018-02-19T07:48:34.092Z,34.37
2018-02-19T07:51:03.231Z,34.63
2018-02-19T07:53:32.374Z,33.87
2018-02-19T07:56:01.552Z,35.20
2018-02-19T07:58:30.728Z,36.33
2018-02-19T08:00:59.865Z,34.37
2018-02-19T08:03:29.028Z,34.80
2018-02-19T08:05:58.178Z,34.40
2018-02-19T08:08:27.353Z,34.57
2018-02-19T08:10:56.507Z,34.77
2018-02-19T08:13:25.650Z,35.70
2018-02-19T08:15:54.785Z,39.13
2018-02-19T08:18:23.973Z,37.80
2018-02-19T08:20:53.140Z,38.70
2018-02-19T08:23:22.294Z,39.60
2018-02-19T08:25:51.441Z,40.90
2018-02-19T08:28:20.624Z,40.47
2018-02-19T08:30:49.804Z,42.20
2018-02-19T08:33:18.953Z,41.67
2018-02-19T08:35:48.129Z,42.20
2018-02-19T08:38:17.279Z,44.07
2018-02-19T08:40:46.431Z,44.00
2018-02-19T08:43:15.618Z,42.30
2018-02-19T08:45:44.768Z,42.60
2018-02-19T08:48:13.919Z,44.87
2018-02-19T08:50:43.134Z,41.23
2018-02-19T08:53:12.280Z,41.80
2018-02-19T08:55:41.422Z,42.40
2018-02-19T08:58:10.603Z,43.97
2018-02-19T09:00:39.745Z,43.50
2018-02-19T09:03:08.883Z,48.27
2018-02-19T09:05:38.059Z,42.93
2018-02-19T09:08:07.193Z,44.17
2018-02-19T09:10:36.339Z,46.90
2018-02-19T09:13:05.517Z,47.53
2018-02-19T09:15:34.670Z,47.63
2018-02-19T09:18:03.888Z,46.20
2018-02-19T09:20:33.079Z,47.33
2018-02-19T09:23:02.229Z,47.03
2018-02-19T09:25:31.420Z,45.80
2018-02-19T09:28:00.578Z,51.03
2018-02-19T09:30:29.747Z,49.77
2018-02-19T09:32:59.116Z,51.27
2018-02-19T09:35:28.258Z,51.40
2018-02-19T09:37:57.430Z,50.10
2018-02-19T09:40:26.610Z,47.77
2018-02-19T09:42:55.797Z,47.40
2018-02-19T09:45:24.950Z,47.63
2018-02-19T09:47:54.130Z,49.67
2018-02-19T09:50:23.316Z,47.37
2018-02-19T09:52:52.465Z,45.23
2018-02-19T09:55:21.615Z,49.67
2018-02-19T09:57:50.783Z,53.60
2018-02-19T10:00:19.929Z,52.03
2018-02-19T10:02:49.070Z,47.37
2018-02-19T10:05:18.262Z,48.00
2018-02-19T10:07:47.406Z,48.70
2018-02-19T10:10:16.558Z,48.10
2018-02-19T10:12:45.737Z,45.70
2018-02-19T10:15:14.882Z,46.20
2018-02-19T10:17:44.022Z,47.50
2018-02-19T10:20:13.214Z,44.87
2018-02-19T10:22:42.368Z,45.40
2018-02-19T10:25:11.518Z,44.17
2018-02-19T10:27:40.685Z,46.13
2018-02-19T10:30:09.832Z,43.60
2018-02-19T10:32:38.986Z,40.43
2018-02-19T10:35:08.811Z,41.80
2018-02-19T10:37:37.957Z,43.50
2018-02-19T10:40:07.104Z,41.57
2018-02-19T10:42:36.264Z,41.87
2018-02-19T10:45:05.401Z,41.47
2018-02-19T10:47:34.538Z,40.23
2018-02-19T10:50:03.750Z,43.00
2018-02-19T10:52:32.899Z,41.27
2018-02-19T10:55:02.050Z,42.70
2018-02-19T10:57:31.258Z,41.77
2018-02-19T11:00:00.440Z,43.10
2018-02-19T11:02:29.554Z,39.83
2018-02-19T11:04:58.738Z,42.43
2018-02-19T11:07:27.884Z,41.20
2018-02-19T11:09:57.030Z,42.87
2018-02-19T11:12:26.203Z,44.03
2018-02-19T11:14:55.342Z,42.93
2018-02-19T11:17:24.481Z,39.97
2018-02-19T11:19:53.660Z,42.60
2018-02-19T11:22:22.811Z,43.07
2018-02-19T11:24:51.962Z,45.70
2018-02-19T11:27:21.137Z,44.47
2018-02-19T11:29:50.291Z,45.10
2018-02-19T11:32:19.459Z,48.60
2018-02-19T11:34:48.641Z,44.87
2018-02-19T11:37:17.946Z,43.87
2018-02-19T11:39:47.077Z,44.60
2018-02-19T11:42:16.249Z,41.90
2018-02-19T11:44:45.401Z,42.17
2018-02-19T11:47:14.545Z,43.20
2018-02-19T11:49:43.722Z,43.90
2018-02-19T11:52:12.879Z,44.87
2018-02-19T11:54:42.042Z,43.57
2018-02-19T11:59:46.098Z,48.10
2018-02-19T12:02:15.242Z,44.03
2018-02-19T12:04:44.406Z,42.40
2018-02-19T12:07:13.585Z,45.27
2018-02-19T12:09:42.761Z,42.90
2018-02-19T12:12:11.910Z,43.10
2018-02-19T12:14:41.094Z,41.50
2018-02-19T12:17:10.237Z,45.00
2018-02-19T12:19:39.382Z,44.50
2018-02-19T12:22:08.576Z,46.50
2018-02-19T12:24:37.728Z,44.27
2018-02-19T12:27:06.914Z,45.97
2018-02-19T12:29:36.046Z,43.93
2018-02-19T12:32:05.197Z,45.57
2018-02-19T12:34:34.356Z,43.03
2018-02-19T12:37:03.502Z,46.30
2018-02-19T12:39:32.685Z,45.60
2018-02-19T12:42:01.871Z,48.17
2018-02-19T12:44:31.014Z,52.30
2018-02-19T12:47:00.156Z,50.53
2018-02-19T12:49:29.338Z,48.83
2018-02-19T12:51:58.482Z,48.57
2018-02-19T12:54:27.631Z,48.73
2018-02-19T12:56:56.817Z,47.13
2018-02-19T12:59:25.954Z,45.80
2018-02-19T13:01:55.116Z,47.07
2018-02-19T13:04:24.295Z,46.10
2018-02-19T13:06:53.446Z,50.80
2018-02-19T13:09:22.610Z,51.10
2018-02-19T13:11:51.828Z,48.90
2018-02-19T13:14:20.970Z,49.93
2018-02-19T13:16:50.150Z,53.47
2018-02-19T13:19:19.346Z,51.60
2018-02-19T13:21:48.481Z,53.40
2018-02-19T13:24:17.636Z,53.17
2018-02-19T13:26:46.814Z,55.53
2018-02-19T13:29:15.958Z,50.10
2018-02-19T13:31:45.102Z,48.20
2018-02-19T13:34:14.291Z,46.23
2018-02-19T13:36:43.428Z,53.57
2018-02-19T13:39:12.579Z,51.60
2018-02-19T13:41:41.753Z,57.67
2018-02-19T13:44:10.889Z,53.40
2018-02-19T13:46:40.068Z,50.23
2018-02-19T13:49:09.223Z,55.07
2018-02-19T13:51:38.368Z,53.30
2018-02-19T13:54:07.642Z,51.80
2018-02-19T13:56:36.814Z,55.80
2018-02-19T13:59:06.032Z,58.53
2018-02-19T14:01:35.725Z,51.27
2018-02-19T14:04:04.877Z,56.87
2018-02-19T14:06:34.015Z,50.50
2018-02-19T14:09:03.189Z,52.53
2018-02-19T14:11:32.415Z,52.33
2018-02-19T14:14:01.590Z,49.57
2018-02-19T14:16:30.785Z,54.90
2018-02-19T14:19:00.020Z,50.57
2018-02-19T14:21:29.184Z,51.77
2018-02-19T14:23:58.334Z,51.13
2018-02-19T14:26:27.510Z,51.03
2018-02-19T14:28:56.684Z,54.33
2018-02-19T14:31:25.823Z,52.90
2018-02-19T14:33:54.999Z,54.37
2018-02-19T14:36:24.150Z,51.63
2018-02-19T14:38:53.303Z,52.60
2018-02-19T14:41:22.461Z,51.10
2018-02-19T14:43:51.606Z,50.13
2018-02-19T14:46:20.755Z,48.10
2018-02-19T14:48:49.954Z,49.67
2018-02-19T14:51:19.165Z,47.27
2018-02-19T14:53:48.337Z,48.43
2018-02-19T14:56:17.509Z,46.67
2018-02-19T14:58:46.659Z,49.07
2018-02-19T15:01:15.801Z,48.87
2018-02-19T15:03:45.153Z,49.53
2018-02-19T15:06:14.311Z,48.70
2018-02-19T15:08:43.462Z,47.93
2018-02-19T15:11:12.638Z,47.53
2018-02-19T15:13:41.794Z,45.47
2018-02-19T15:16:10.925Z,45.30
2018-02-19T15:18:40.121Z,47.07
2018-02-19T15:21:09.326Z,46.37
2018-02-19T15:23:38.486Z,45.00
2018-02-19T15:26:07.644Z,44.53
2018-02-19T15:28:36.817Z,44.17
2018-02-19T15:31:05.995Z,44.07
2018-02-19T15:33:35.135Z,44.03
2018-02-19T15:36:04.328Z,43.20
2018-02-19T15:38:33.457Z,45.57
2018-02-19T15:41:02.640Z,45.53
2018-02-19T15:43:31.790Z,44.37
2018-02-19T15:46:00.938Z,44.30
2018-02-19T15:48:30.127Z,45.60
2018-02-19T15:50:59.267Z,44.67
2018-02-19T15:53:28.420Z,49.70
2018-02-19T15:55:57.588Z,45.90
2018-02-19T15:58:26.737Z,45.07
2018-02-19T16:00:55.890Z,44.23
2018-02-19T16:03:25.064Z,45.97
2018-02-19T16:05:54.793Z,46.37
2018-02-19T16:08:23.922Z,47.50
2018-02-19T16:10:53.110Z,44.67
2018-02-19T16:13:22.250Z,43.87
2018-02-19T16:15:51.395Z,44.97
2018-02-19T16:18:20.574Z,45.30
2018-02-19T16:20:49.716Z,45.23
2018-02-19T16:23:18.902Z,45.50
2018-02-19T16:25:48.070Z,49.37
2018-02-19T16:28:17.252Z,46.10
2018-02-19T16:30:46.397Z,46.23
2018-02-19T16:33:15.611Z,45.33
2018-02-19T16:35:44.758Z,46.13
2018-02-19T16:38:13.903Z,46.00
2018-02-19T16:40:43.086Z,45.77
2018-02-19T16:43:12.219Z,46.70
2018-02-19T16:45:41.365Z,45.47
2018-02-19T16:48:10.550Z,42.93
2018-02-19T16:50:39.705Z,44.93
2018-02-19T16:53:08.865Z,44.90
2018-02-19T16:55:38.033Z,46.03
2018-02-19T16:58:07.184Z,47.37
2018-02-19T17:00:36.345Z,47.27
2018-02-19T17:03:05.525Z,43.40
2018-02-19T17:05:34.689Z,45.70
2018-02-19T17:08:03.859Z,43.60
2018-02-19T17:10:33.064Z,44.10
2018-02-19T17:13:02.201Z,45.30
2018-02-19T17:15:31.351Z,43.10
2018-02-19T17:18:00.519Z,40.63
2018-02-19T17:20:29.668Z,45.07
2018-02-19T17:22:58.810Z,43.97
2018-02-19T17:25:27.977Z,45.40
2018-02-19T17:27:57.113Z,43.40
2018-02-19T17:30:26.276Z,42.17
2018-02-19T17:32:55.469Z,44.63
2018-02-19T17:35:24.614Z,43.80
2018-02-19T17:37:53.826Z,43.30
2018-02-19T17:40:22.976Z,45.50
2018-02-19T17:42:52.119Z,44.07
2018-02-19T17:45:21.311Z,43.40
2018-02-19T17:47:50.458Z,44.03
2018-02-19T17:50:19.640Z,46.00
2018-02-19T17:52:48.782Z,46.07
2018-02-19T17:55:17.951Z,45.77
2018-02-19T17:57:47.139Z,44.27
2018-02-19T18:00:16.287Z,45.17
2018-02-19T18:02:45.433Z,46.27
2018-02-19T18:05:14.620Z,44.87
2018-02-19T18:07:43.785Z,46.87
2018-02-19T18:10:12.917Z,47.67
2018-02-19T18:12:42.358Z,51.53
2018-02-19T18:15:11.565Z,50.67
2018-02-19T18:17:40.705Z,54.20
2018-02-19T18:20:10.566Z,51.77
2018-02-19T18:22:39.698Z,53.77
2018-02-19T18:25:08.842Z,53.23
2018-02-19T18:27:38.014Z,57.70
2018-02-19T18:30:07.167Z,53.47
2018-02-19T18:32:36.311Z,53.40
2018-02-19T18:35:05.506Z,54.20
2018-02-19T18:37:34.646Z,53.37
2018-02-19T18:40:03.804Z,49.90
2018-02-19T18:42:33.029Z,51.50
2018-02-19T18:45:02.180Z,55.07
2018-02-19T18:47:31.327Z,56.80
2018-02-19T18:50:00.500Z,67.67
2018-02-19T18:52:29.645Z,51.30
2018-02-19T18:54:58.791Z,50.00
2018-02-19T18:57:27.965Z,53.63
2018-02-19T18:59:57.111Z,56.17
2018-02-19T19:02:26.254Z,55.47
2018-02-19T19:04:55.447Z,54.43
2018-02-19T19:07:30.524Z,54.10
2018-02-19T19:10:05.527Z,56.60
2018-02-19T19:12:34.710Z,56.97
2018-02-19T19:15:03.848Z,58.47
2018-02-19T19:17:32.993Z,54.67
2018-02-19T19:20:02.181Z,55.57
2018-02-19T19:22:31.441Z,54.63
2018-02-19T19:25:00.579Z,57.77
2018-02-19T19:27:29.759Z,55.77
2018-02-19T19:29:58.938Z,54.77
2018-02-19T19:32:28.114Z,54.70
2018-02-19T19:34:57.307Z,60.67
2018-02-19T19:37:26.453Z,57.93
2018-02-19T19:39:55.602Z,54.57
2018-02-19T19:42:24.784Z,57.17
2018-02-19T19:44:53.942Z,56.60
2018-02-19T19:47:23.092Z,55.80
2018-02-19T19:49:52.267Z,52.57
2018-02-19T19:52:21.414Z,54.70
2018-02-19T19:54:50.593Z,56.13
2018-02-19T19:57:19.751Z,54.83
2018-02-19T19:59:48.976Z,56.07
2018-02-19T20:02:18.126Z,55.50
2018-02-19T20:04:47.265Z,54.23
2018-02-19T20:07:16.433Z,54.23
2018-02-19T20:09:45.590Z,52.30
2018-02-19T20:12:14.729Z,53.97
2018-02-19T20:14:43.911Z,53.77
2018-02-19T20:17:13.058Z,53.13
2018-02-19T20:19:42.203Z,54.40
2018-02-19T20:22:11.390Z,50.20
2018-02-19T20:24:40.545Z,51.97
2018-02-19T20:27:09.694Z,51.60
2018-02-19T20:29:38.857Z,53.83
2018-02-19T20:32:08.006Z,55.40
2018-02-19T20:34:37.149Z,52.43
2018-02-19T20:37:06.355Z,51.60
2018-02-19T20:39:35.495Z,51.47
2018-02-19T20:42:04.643Z,50.70
2018-02-19T20:44:33.907Z,49.97
2018-02-19T20:47:03.089Z,52.60
2018-02-19T20:49:32.227Z,50.67
2018-02-19T20:52:01.377Z,50.60
2018-02-19T20:54:30.555Z,51.47
2018-02-19T20:56:59.716Z,52.53
2018-02-19T20:59:28.853Z,53.40
2018-02-19T21:01:58.079Z,51.50
2018-02-19T21:04:27.239Z,51.13
2018-02-19T21:06:56.402Z,52.10
2018-02-19T21:09:25.608Z,51.20
2018-02-19T21:11:54.746Z,58.00
2018-02-19T21:14:23.898Z,55.50
2018-02-19T21:16:53.098Z,57.83
2018-02-19T21:22:11.071Z,58.27
2018-02-19T21:24:40.229Z,61.73
2018-02-19T21:27:10.102Z,61.50
2018-02-19T21:29:39.278Z,65.50
2018-02-19T21:32:08.429Z,63.10
2018-02-19T21:34:37.579Z,61.97
2018-02-19T21:37:06.758Z,60.23
2018-02-19T21:39:35.902Z,59.57
2018-02-19T21:42:05.064Z,56.77
2018-02-19T21:44:34.201Z,57.07
2018-02-19T21:47:03.347Z,57.10
2018-02-19T21:49:32.505Z,59.43
2018-02-19T21:52:01.666Z,58.07
2018-02-19T21:54:30.823Z,62.00
2018-02-19T21:57:00.001Z,66.37
2018-02-19T21:59:29.158Z,60.70
2018-02-19T22:01:58.318Z,59.80
2018-02-19T22:04:27.504Z,62.27
2018-02-19T22:06:56.642Z,61.97
2018-02-19T22:09:25.793Z,61.60
2018-02-19T22:11:54.945Z,59.80
2018-02-19T22:14:24.091Z,60.70
2018-02-19T22:16:53.305Z,55.07
2018-02-19T22:19:22.450Z,61.77
2018-02-19T22:21:51.618Z,61.63
2018-02-19T22:24:20.802Z,62.47
2018-02-19T22:26:49.986Z,56.67
2018-02-19T22:29:19.413Z,56.70
2018-02-19T22:31:48.553Z,54.83
2018-02-19T22:34:17.705Z,58.23
2018-02-19T22:36:46.917Z,56.30
2018-02-19T22:39:16.055Z,55.97
2018-02-19T22:41:45.208Z,52.70
2018-02-19T22:44:14.391Z,53.57
2018-02-19T22:46:43.533Z,53.20
2018-02-19T22:49:12.686Z,53.03
2018-02-19T22:51:41.856Z,53.77
2018-02-19T22:54:10.994Z,51.87
2018-02-19T22:56:40.138Z,49.13
2018-02-19T22:59:09.332Z,50.27
2018-02-19T23:01:38.531Z,48.33
2018-02-19T23:04:07.689Z,49.20
2018-02-19T23:06:36.901Z,49.87
2018-02-19T23:09:06.087Z,48.00
2018-02-19T23:11:35.226Z,47.20
2018-02-19T23:14:04.404Z,51.43
2018-02-19T23:16:33.551Z,49.37
2018-02-19T23:19:02.761Z,51.53
2018-02-19T23:21:31.939Z,50.37
2018-02-19T23:24:01.099Z,52.07
2018-02-19T23:26:30.246Z,49.70
2018-02-19T23:28:59.433Z,50.80
2018-02-19T23:31:28.572Z,50.90
2018-02-19T23:33:57.762Z,49.90
2018-02-19T23:36:26.946Z,51.53
2018-02-19T23:38:56.093Z,53.60
2018-02-19T23:41:25.281Z,54.37
2018-02-19T23:43:54.619Z,57.30
2018-02-19T23:46:23.956Z,53.03
2018-02-19T23:48:53.506Z,54.20
2018-02-19T23:51:22.685Z,54.73
2018-02-19T23:53:51.879Z,54.40
2018-02-19T23:56:21.021Z,51.67
2018-02-19T23:58:50.185Z,51.43
